createdAt,value
2023-05-22T00:03:48.870Z,58.55
2023-05-22T00:08:51.150Z,58.55
2023-05-22T00:13:53.586Z,58.74
2023-05-22T00:18:55.864Z,59.06
2023-05-22T00:23:58.042Z,58.31
2023-05-22T00:29:00.174Z,58.44
2023-05-22T00:34:02.441Z,58.40
2023-05-22T00:39:04.730Z,58.30
2023-05-22T00:44:08.237Z,58.13
2023-05-22T00:49:10.335Z,58.43
2023-05-22T00:54:14.056Z,58.39
2023-05-22T00:59:17.476Z,58.31
2023-05-22T01:04:19.931Z,57.99
2023-05-22T01:09:23.868Z,58.08
2023-05-22T01:14:41.363Z,58.05
2023-05-22T01:20:01.698Z,58.26
2023-05-22T01:25:18.089Z,58.04
2023-05-22T01:30:41.843Z,58.22
2023-05-22T01:35:49.038Z,58.15
2023-05-22T01:40:51.367Z,58.01
2023-05-22T01:45:54.218Z,57.87
2023-05-22T01:51:03.945Z,57.96
2023-05-22T01:56:31.484Z,57.92
2023-05-22T02:01:37.583Z,57.78
2023-05-22T02:06:41.717Z,57.95
2023-05-22T02:11:44.418Z,57.94
2023-05-22T02:16:47.973Z,57.93
2023-05-22T02:21:50.286Z,58.11
2023-05-22T02:26:52.440Z,57.85
2023-05-22T02:31:55.111Z,57.79
2023-05-22T02:36:57.880Z,57.59
2023-05-22T02:41:59.994Z,57.59
2023-05-22T02:47:02.351Z,57.48
2023-05-22T02:52:04.755Z,57.60
2023-05-22T02:57:07.086Z,57.73
2023-05-22T03:02:09.202Z,57.28
2023-05-22T03:07:12.453Z,57.21
2023-05-22T03:12:14.687Z,57.29
2023-05-22T03:17:16.832Z,57.24
2023-05-22T03:22:19.307Z,57.09
2023-05-22T03:27:21.550Z,57.24
2023-05-22T03:32:24.591Z,57.20
2023-05-22T03:37:27.158Z,57.40
2023-05-22T03:42:29.364Z,57.43
2023-05-22T03:47:32.719Z,57.32
2023-05-22T03:52:34.929Z,56.93
2023-05-22T03:57:37.043Z,57.15
2023-05-22T04:02:39.304Z,57.09
2023-05-22T04:07:41.605Z,56.82
2023-05-22T04:12:43.808Z,56.83
2023-05-22T04:17:50.283Z,57.06
2023-05-22T04:22:52.556Z,57.18
2023-05-22T04:27:54.689Z,56.83
2023-05-22T04:32:57.509Z,56.70
2023-05-22T04:38:03.831Z,56.94
2023-05-22T04:43:06.426Z,56.99
2023-05-22T04:48:08.681Z,57.21
2023-05-22T04:53:12.920Z,57.24
2023-05-22T04:58:15.076Z,57.13
2023-05-22T05:03:17.326Z,56.97
2023-05-22T05:08:19.749Z,56.78
2023-05-22T05:13:21.976Z,57.06
2023-05-22T05:18:24.204Z,56.85
2023-05-22T05:23:27.118Z,57.01
2023-05-22T05:28:30.204Z,57.00
2023-05-22T05:33:33.940Z,57.14
2023-05-22T05:38:42.008Z,57.21
2023-05-22T05:43:45.022Z,57.20
2023-05-22T05:48:47.196Z,57.07
2023-05-22T05:53:49.847Z,57.12
2023-05-22T05:58:52.655Z,57.07
2023-05-22T06:04:15.087Z,57.46
2023-05-22T06:09:19.967Z,57.38
2023-05-22T06:14:42.464Z,57.67
2023-05-22T06:19:45.223Z,57.68
2023-05-22T06:24:48.459Z,57.51
2023-05-22T06:29:56.329Z,57.59
2023-05-22T06:35:00.170Z,57.51
2023-05-22T06:40:03.628Z,57.43
2023-05-22T06:45:24.060Z,57.69
2023-05-22T06:50:44.977Z,57.34
2023-05-22T06:55:47.551Z,57.38
2023-05-22T07:00:58.418Z,57.39
2023-05-22T07:06:09.077Z,57.35
2023-05-22T07:11:11.437Z,57.48
2023-05-22T07:16:15.043Z,57.58
2023-05-22T07:21:17.864Z,57.48
2023-05-22T07:26:20.171Z,57.48
2023-05-22T07:31:31.821Z,57.27
2023-05-22T07:36:35.122Z,57.31
2023-05-22T07:41:38.104Z,57.12
2023-05-22T07:46:41.942Z,57.36
2023-05-22T07:51:47.458Z,57.24
2023-05-22T07:56:52.272Z,57.16
2023-05-22T08:01:58.223Z,57.45
2023-05-22T08:07:01.689Z,57.03
2023-05-22T08:12:03.877Z,57.05
2023-05-22T08:17:06.132Z,57.00
2023-05-22T08:22:08.268Z,57.09
2023-05-22T08:27:10.308Z,57.00
2023-05-22T08:32:12.528Z,56.84
2023-05-22T08:37:15.340Z,56.91
2023-05-22T08:42:17.448Z,57.13
2023-05-22T08:47:20.769Z,57.29
2023-05-22T08:52:23.762Z,57.20
2023-05-22T08:57:27.010Z,57.04
2023-05-22T09:02:29.159Z,57.05
2023-05-22T09:07:33.227Z,56.99
2023-05-22T09:12:35.459Z,56.99
2023-05-22T09:17:41.553Z,57.13
2023-05-22T09:22:43.775Z,57.34
2023-05-22T09:27:46.835Z,57.16
2023-05-22T09:32:49.359Z,57.25
2023-05-22T09:37:51.962Z,57.06
2023-05-22T09:42:54.112Z,57.13
2023-05-22T09:47:56.588Z,57.04
2023-05-22T09:53:03.092Z,57.14
2023-05-22T09:58:07.559Z,57.23
2023-05-22T10:03:12.762Z,57.31
2023-05-22T10:08:17.755Z,57.41
2023-05-22T10:13:21.160Z,57.34
2023-05-22T10:18:24.815Z,57.26
2023-05-22T10:23:28.897Z,57.37
2023-05-22T10:28:40.298Z,57.42
2023-05-22T10:33:48.438Z,57.42
2023-05-22T10:38:56.509Z,57.39
2023-05-22T10:43:58.632Z,57.43
2023-05-22T10:49:00.872Z,57.71
2023-05-22T10:54:05.615Z,57.44
2023-05-22T10:59:08.564Z,57.54
2023-05-22T11:04:16.245Z,57.39
2023-05-22T11:09:32.268Z,57.58
2023-05-22T11:14:37.012Z,57.64
2023-05-22T11:19:41.843Z,57.67
2023-05-22T11:24:44.059Z,57.89
2023-05-22T11:29:46.571Z,57.64
2023-05-22T11:34:50.734Z,57.51
2023-05-22T11:39:57.617Z,57.61
2023-05-22T11:45:00.644Z,57.78
2023-05-22T11:50:03.334Z,57.80
2023-05-22T11:55:05.982Z,57.74
2023-05-22T12:00:09.045Z,57.76
2023-05-22T12:05:14.287Z,57.75
2023-05-22T12:10:16.689Z,57.59
2023-05-22T12:15:21.109Z,57.83
2023-05-22T12:20:23.231Z,57.74
2023-05-22T12:25:35.827Z,57.63
2023-05-22T12:30:42.204Z,57.49
2023-05-22T12:35:44.327Z,57.64
2023-05-22T12:40:46.740Z,57.74
2023-05-22T12:45:49.155Z,57.76
2023-05-22T12:50:51.267Z,58.11
2023-05-22T12:55:53.422Z,57.79
2023-05-22T13:00:55.815Z,57.79
2023-05-22T13:05:57.791Z,57.84
2023-05-22T13:10:59.883Z,57.69
2023-05-22T13:16:02.044Z,57.89
2023-05-22T13:21:04.341Z,57.81
2023-05-22T13:26:06.475Z,58.02
2023-05-22T13:31:08.601Z,57.95
2023-05-22T13:36:11.007Z,57.93
2023-05-22T13:41:13.077Z,58.06
2023-05-22T13:46:15.192Z,58.20
2023-05-22T13:51:17.316Z,57.95
2023-05-22T13:56:19.456Z,57.83
2023-05-22T14:01:21.554Z,57.77
2023-05-22T14:06:24.764Z,57.84
2023-05-22T14:11:27.374Z,57.62
2023-05-22T14:16:29.584Z,57.68
2023-05-22T14:21:31.865Z,57.80
2023-05-22T14:26:34.078Z,57.71
2023-05-22T14:31:50.485Z,57.67
2023-05-22T14:36:53.730Z,57.51
2023-05-22T14:41:55.932Z,57.81
2023-05-22T14:46:58.020Z,57.69
2023-05-22T14:52:00.003Z,57.73
2023-05-22T14:57:01.994Z,57.88
2023-05-22T15:02:04.031Z,57.73
2023-05-22T15:07:06.241Z,57.75
2023-05-22T15:12:08.363Z,57.65
2023-05-22T15:17:10.700Z,57.60
2023-05-22T15:22:19.618Z,57.90
2023-05-22T15:27:22.276Z,57.89
2023-05-22T15:32:27.139Z,57.78
2023-05-22T15:37:39.636Z,58.04
2023-05-22T15:42:41.737Z,57.77
2023-05-22T15:47:43.881Z,57.94
2023-05-22T15:52:45.916Z,57.80
2023-05-22T15:57:47.950Z,57.90
2023-05-22T16:02:50.176Z,57.87
2023-05-22T16:07:52.196Z,57.88
2023-05-22T16:12:54.233Z,57.62
2023-05-22T16:17:56.330Z,57.79
2023-05-22T16:22:58.536Z,57.77
2023-05-22T16:28:00.976Z,57.67
2023-05-22T16:33:03.329Z,57.69
2023-05-22T16:38:07.159Z,58.03
2023-05-22T16:43:13.928Z,57.72
2023-05-22T16:48:16.062Z,57.70
2023-05-22T16:53:18.253Z,57.62
2023-05-22T16:58:20.343Z,57.90
2023-05-22T17:03:22.532Z,57.79
2023-05-22T17:08:28.348Z,57.66
2023-05-22T17:13:30.568Z,57.65
2023-05-22T17:18:32.576Z,57.57
2023-05-22T17:23:37.256Z,57.55
2023-05-22T17:28:39.337Z,57.67
2023-05-22T17:33:41.425Z,57.45
2023-05-22T17:38:43.437Z,57.48
2023-05-22T17:43:45.483Z,57.20
2023-05-22T17:48:47.607Z,57.52
2023-05-22T17:53:50.269Z,57.48
2023-05-22T17:58:52.962Z,57.33
2023-05-22T18:03:55.034Z,57.42
2023-05-22T18:08:57.117Z,57.41
2023-05-22T18:13:59.245Z,57.15
2023-05-22T18:19:01.349Z,57.08
2023-05-22T18:24:03.512Z,57.17
2023-05-22T18:29:05.586Z,57.29
2023-05-22T18:34:07.750Z,57.33
2023-05-22T18:39:10.221Z,57.34
2023-05-22T18:44:12.489Z,57.27
2023-05-22T18:49:14.798Z,57.26
2023-05-22T18:54:16.921Z,57.15
2023-05-22T18:59:19.185Z,56.91
2023-05-22T19:04:21.260Z,57.15
2023-05-22T19:09:24.814Z,57.14
2023-05-22T19:14:27.308Z,57.06
2023-05-22T19:19:29.464Z,56.82
2023-05-22T19:24:31.714Z,56.95
2023-05-22T19:29:33.793Z,57.02
2023-05-22T19:34:35.896Z,56.94
2023-05-22T19:39:38.402Z,56.80
2023-05-22T19:44:40.580Z,56.88
2023-05-22T19:49:42.745Z,56.90
2023-05-22T19:54:44.869Z,56.79
2023-05-22T19:59:47.064Z,56.87
2023-05-22T20:04:49.242Z,56.77
2023-05-22T20:09:51.664Z,56.99
2023-05-22T20:14:54.305Z,56.92
2023-05-22T20:19:58.705Z,57.02
2023-05-22T20:25:01.612Z,56.72
2023-05-22T20:30:04.217Z,56.68
2023-05-22T20:35:19.000Z,56.89
2023-05-22T20:40:22.025Z,56.80
2023-05-22T20:45:24.157Z,56.75
2023-05-22T20:50:26.484Z,56.86
2023-05-22T20:55:28.582Z,56.81
2023-05-22T21:00:30.704Z,56.87
2023-05-22T21:05:32.754Z,56.74
2023-05-22T21:10:34.927Z,56.62
2023-05-22T21:15:37.234Z,56.75
2023-05-22T21:20:39.501Z,56.63
2023-05-22T21:25:42.037Z,56.46
2023-05-22T21:30:44.219Z,56.84
2023-05-22T21:35:46.277Z,56.59
2023-05-22T21:40:48.343Z,56.84
2023-05-22T21:45:50.433Z,56.85
2023-05-22T21:50:52.452Z,56.54
2023-05-22T21:55:54.489Z,56.33
2023-05-22T22:00:56.755Z,56.33
2023-05-22T22:05:58.854Z,56.28
2023-05-22T22:11:01.154Z,56.38
2023-05-22T22:16:03.306Z,56.35
2023-05-22T22:21:05.990Z,56.42
2023-05-22T22:26:08.293Z,56.52
2023-05-22T22:31:10.428Z,56.59
2023-05-22T22:36:12.560Z,56.51
2023-05-22T22:41:14.634Z,56.26
2023-05-22T22:46:16.913Z,56.38
2023-05-22T22:51:20.201Z,56.70
2023-05-22T22:56:24.265Z,56.55
2023-05-22T23:01:26.544Z,56.49
2023-05-22T23:06:29.848Z,56.36
2023-05-22T23:11:37.763Z,56.44
2023-05-22T23:16:43.453Z,56.55
2023-05-22T23:21:46.162Z,56.35
2023-05-22T23:26:48.324Z,56.31
2023-05-22T23:31:50.795Z,56.53
2023-05-22T23:36:52.897Z,56.36
2023-05-22T23:41:55.002Z,56.66
2023-05-22T23:46:57.337Z,56.54
2023-05-22T23:51:59.786Z,56.44
2023-05-22T23:57:01.894Z,56.49
